Time;durP1;ratioP1;P1;durP2;ratioP2;P2;SDS_P1;SDS_P2;PMS_P1;PMS_P2;Temp;Humidity;BMP_temperature;BMP_pressure;BME280_temperature;BME280_humidity;BME280_pressure;Samples;Min_cycle;Max_cycle;Signal;HPM_P1;HPM_P2
2022/10/06 00:00:24;;;;;;;4.85;0.77;;;15.70;98.50;;;;;;5053958;28;20025;-74
2022/10/06 00:02:50;;;;;;;8.18;0.75;;;15.70;98.40;;;;;;5053786;28;20021;-74
2022/10/06 00:05:18;;;;;;;9.57;1.05;;;15.70;98.30;;;;;;5053796;28;20538;-74
2022/10/06 00:07:44;;;;;;;7.70;0.90;;;15.70;98.20;;;;;;5053398;28;20025;-74
2022/10/06 00:10:10;;;;;;;11.05;0.90;;;15.60;98.20;;;;;;5053840;28;20031;-74
2022/10/06 00:12:47;;;;;;;9.05;1.10;;;15.60;98.30;;;;;;5053421;28;20017;-74
2022/10/06 00:15:17;;;;;;;8.63;0.90;;;15.50;98.20;;;;;;5053591;28;20029;-74
2022/10/06 00:17:45;;;;;;;11.07;0.82;;;15.50;98.20;;;;;;5053532;28;20472;-74
2022/10/06 00:20:14;;;;;;;12.98;0.95;;;15.50;98.20;;;;;;5054830;28;20029;-73
2022/10/06 00:22:42;;;;;;;9.40;0.98;;;15.50;98.00;;;;;;5077132;28;20025;-74
2022/10/06 00:25:10;;;;;;;9.15;0.80;;;15.50;97.90;;;;;;5064453;28;20036;-74
2022/10/06 00:27:39;;;;;;;8.07;0.70;;;15.50;97.80;;;;;;5053343;28;20045;-74
2022/10/06 00:30:08;;;;;;;8.85;0.65;;;15.40;97.70;;;;;;5053464;28;20044;-73
2022/10/06 00:32:34;;;;;;;7.40;0.85;;;15.40;97.70;;;;;;5053157;28;20021;-73
2022/10/06 00:34:59;;;;;;;10.40;1.15;;;15.40;97.70;;;;;;5053104;28;20036;-74
2022/10/06 00:37:27;;;;;;;11.75;1.25;;;15.40;97.40;;;;;;5053509;28;20040;-73
2022/10/06 00:39:52;;;;;;;8.10;0.70;;;15.40;97.40;;;;;;5053379;28;20098;-74
2022/10/06 00:42:26;;;;;;;9.32;0.80;;;15.40;97.20;;;;;;5053480;28;20477;-73
2022/10/06 00:44:53;;;;;;;9.73;0.90;;;15.30;97.00;;;;;;5053373;28;20022;-73
2022/10/06 00:47:21;;;;;;;9.60;0.70;;;15.30;96.90;;;;;;5052989;28;20025;-73
2022/10/06 00:49:48;;;;;;;7.50;0.98;;;15.30;97.00;;;;;;5053160;28;20472;-73
2022/10/06 00:52:17;;;;;;;10.02;0.90;;;15.30;96.90;;;;;;5053400;28;20087;-73
2022/10/06 00:54:43;;;;;;;7.03;0.93;;;15.30;96.80;;;;;;5053203;28;20037;-74
2022/10/06 00:57:09;;;;;;;12.93;1.15;;;15.30;96.70;;;;;;5053164;28;20095;-74
2022/10/06 00:59:36;;;;;;;9.65;0.93;;;15.30;96.50;;;;;;5053215;28;20025;-73
2022/10/06 01:02:06;;;;;;;13.05;1.70;;;15.30;96.50;;;;;;5053238;28;20082;-74
2022/10/06 01:04:35;;;;;;;10.10;1.00;;;15.30;96.50;;;;;;5053368;28;20071;-74
2022/10/06 01:07:02;;;;;;;8.25;0.95;;;15.30;96.50;;;;;;5053076;28;20021;-74
2022/10/06 01:09:29;;;;;;;7.55;0.70;;;15.30;96.50;;;;;;5053042;28;20029;-75
2022/10/06 01:11:57;;;;;;;11.90;1.02;;;15.30;96.50;;;;;;5052968;28;20564;-74
2022/10/06 01:14:24;;;;;;;10.20;1.15;;;15.20;96.10;;;;;;5053168;28;20040;-74
2022/10/06 01:16:54;;;;;;;10.32;0.93;;;15.20;96.20;;;;;;5052952;28;20473;-74
2022/10/06 01:19:34;;;;;;;15.00;2.05;;;15.20;96.40;;;;;;5074362;28;20017;-73
2022/10/06 01:22:04;;;;;;;12.40;1.02;;;15.10;96.00;;;;;;5061548;28;20056;-74
2022/10/06 01:24:30;;;;;;;10.30;0.90;;;15.10;96.10;;;;;;5053091;28;20029;-74
2022/10/06 01:26:57;;;;;;;15.13;1.52;;;15.10;96.10;;;;;;5052552;28;20044;-73
2022/10/06 01:29:24;;;;;;;12.32;1.10;;;15.00;96.10;;;;;;5052719;28;20079;-75
2022/10/06 01:31:50;;;;;;;11.55;1.55;;;15.00;96.10;;;;;;5052858;28;20036;-74
2022/10/06 01:34:15;;;;;;;12.43;1.40;;;15.00;96.40;;;;;;5052899;28;20029;-74
2022/10/06 01:36:41;;;;;;;11.73;1.50;;;15.00;96.20;;;;;;5053117;28;20018;-74
2022/10/06 01:39:09;;;;;;;10.82;0.82;;;15.00;96.20;;;;;;5052821;28;20021;-74
2022/10/06 01:41:35;;;;;;;15.88;1.10;;;15.00;96.40;;;;;;5052495;28;20021;-74
2022/10/06 01:44:01;;;;;;;11.35;1.00;;;15.00;96.10;;;;;;5052907;28;20043;-74
2022/10/06 01:46:28;;;;;;;10.93;1.40;;;15.00;96.10;;;;;;5052698;28;20035;-74
2022/10/06 01:48:54;;;;;;;10.77;1.25;;;15.00;96.40;;;;;;5052797;28;20432;-74
2022/10/06 01:51:20;;;;;;;18.13;0.93;;;15.00;96.10;;;;;;5052653;28;20029;-74
2022/10/06 01:53:45;;;;;;;9.55;0.80;;;15.00;95.90;;;;;;5052574;28;20033;-74
2022/10/06 01:56:11;;;;;;;10.60;0.85;;;15.00;95.90;;;;;;5052780;28;20022;-74
2022/10/06 01:58:37;;;;;;;10.10;0.93;;;15.00;95.90;;;;;;5052947;28;20025;-74
2022/10/06 02:01:07;;;;;;;11.15;1.30;;;15.00;95.80;;;;;;5056309;28;20036;-74
2022/10/06 02:03:34;;;;;;;12.57;1.58;;;15.00;95.90;;;;;;5056167;28;20029;-74
2022/10/06 02:06:00;;;;;;;11.70;1.48;;;14.90;95.90;;;;;;5055967;28;20025;-73
2022/10/06 02:08:25;;;;;;;8.52;0.80;;;14.90;95.90;;;;;;5055973;28;20108;-73
2022/10/06 02:10:51;;;;;;;14.40;0.90;;;14.90;95.90;;;;;;5056082;28;20029;-74
2022/10/06 02:13:17;;;;;;;7.72;0.90;;;15.00;95.80;;;;;;5056440;28;20028;-73
2022/10/06 02:15:42;;;;;;;12.02;1.45;;;14.90;95.70;;;;;;5078234;28;20036;-73
2022/10/06 02:18:08;;;;;;;7.95;1.15;;;14.90;95.70;;;;;;5069171;28;20029;-74
2022/10/06 02:20:34;;;;;;;12.98;1.15;;;14.90;95.70;;;;;;5055911;28;20033;-73
2022/10/06 02:22:59;;;;;;;14.23;1.38;;;14.90;95.70;;;;;;5055706;28;20035;-74
2022/10/06 02:25:26;;;;;;;7.03;0.73;;;14.90;95.70;;;;;;5055317;28;20034;-73
2022/10/06 02:27:53;;;;;;;10.85;1.00;;;14.80;95.70;;;;;;5055497;28;20045;-73
2022/10/06 02:30:19;;;;;;;10.15;1.20;;;14.80;95.80;;;;;;5055685;28;20035;-73
2022/10/06 02:32:44;;;;;;;8.63;1.17;;;14.80;95.90;;;;;;5055327;28;20107;-74
2022/10/06 02:35:14;;;;;;;13.57;1.30;;;14.80;95.70;;;;;;5055159;28;20037;-73
2022/10/06 02:37:40;;;;;;;13.88;1.35;;;14.70;95.70;;;;;;5055723;28;20025;-74
2022/10/06 02:40:07;;;;;;;12.48;1.40;;;14.70;95.70;;;;;;5055599;28;20025;-73
2022/10/06 02:42:36;;;;;;;15.02;1.38;;;14.70;95.70;;;;;;5055230;28;20441;-74
2022/10/06 02:45:03;;;;;;;13.93;1.45;;;14.60;95.60;;;;;;5055373;28;20075;-74
2022/10/06 02:47:31;;;;;;;11.95;1.23;;;14.60;95.70;;;;;;5055431;28;20040;-74
2022/10/06 02:49:58;;;;;;;14.40;1.23;;;14.60;95.70;;;;;;5055170;28;20037;-74
2022/10/06 02:52:28;;;;;;;13.73;1.17;;;14.50;95.60;;;;;;5055047;28;20033;-74
2022/10/06 02:54:54;;;;;;;14.52;1.40;;;14.50;95.70;;;;;;5055057;28;20468;-74
2022/10/06 02:57:20;;;;;;;15.40;1.40;;;14.50;95.70;;;;;;5055334;28;20027;-74
2022/10/06 02:59:45;;;;;;;11.18;1.40;;;14.50;95.70;;;;;;5055197;28;20020;-74
2022/10/06 03:02:11;;;;;;;9.80;1.48;;;14.50;95.70;;;;;;5054907;28;20070;-74
2022/10/06 03:04:36;;;;;;;12.32;1.02;;;14.50;95.60;;;;;;5055244;28;20025;-74
2022/10/06 03:07:02;;;;;;;12.90;1.27;;;14.50;95.60;;;;;;5054924;28;20866;-74
2022/10/06 03:09:28;;;;;;;12.57;1.33;;;14.50;95.60;;;;;;5055080;28;20123;-74
2022/10/06 03:11:53;;;;;;;10.00;1.52;;;14.40;95.60;;;;;;5071907;28;20017;-72
2022/10/06 03:14:19;;;;;;;13.90;1.48;;;14.40;95.50;;;;;;5068103;28;20056;-74
2022/10/06 03:16:44;;;;;;;15.60;1.85;;;14.40;95.60;;;;;;5056654;28;20039;-74
2022/10/06 03:19:10;;;;;;;15.63;1.52;;;14.30;95.60;;;;;;5054485;28;20483;-74
2022/10/06 03:21:39;;;;;;;13.43;2.20;;;14.30;95.70;;;;;;5054556;28;20049;-74
2022/10/06 03:24:05;;;;;;;15.10;1.25;;;14.20;95.90;;;;;;5054254;28;20036;-74
2022/10/06 03:26:33;;;;;;;9.35;1.05;;;14.20;95.90;;;;;;5054393;28;20041;-74
2022/10/06 03:28:59;;;;;;;12.25;1.40;;;14.20;95.80;;;;;;5054491;28;20385;-74
2022/10/06 03:31:25;;;;;;;14.15;1.13;;;14.20;95.80;;;;;;5054601;28;20024;-74
2022/10/06 03:33:51;;;;;;;18.52;1.80;;;14.20;95.80;;;;;;5053926;28;20435;-73
2022/10/06 03:36:22;;;;;;;13.10;0.93;;;14.30;95.70;;;;;;5054484;28;20027;-73
2022/10/06 03:38:49;;;;;;;13.60;1.90;;;14.30;95.70;;;;;;5054546;28;20021;-73
2022/10/06 03:41:16;;;;;;;12.88;1.48;;;14.30;95.70;;;;;;5054160;28;20518;-73
2022/10/06 03:43:43;;;;;;;9.65;1.17;;;14.20;95.70;;;;;;5054410;28;20441;-73
2022/10/06 03:46:12;;;;;;;12.50;2.00;;;14.20;95.80;;;;;;5053970;28;20025;-73
2022/10/06 03:48:38;;;;;;;8.45;1.30;;;14.20;95.70;;;;;;5054043;28;20029;-73
2022/10/06 03:51:06;;;;;;;13.27;1.50;;;14.20;95.80;;;;;;5054187;28;20021;-73
2022/10/06 03:53:33;;;;;;;10.10;1.33;;;14.10;95.80;;;;;;5054006;28;20040;-73
2022/10/06 03:55:59;;;;;;;9.20;1.17;;;14.10;95.80;;;;;;5054202;28;20025;-73
2022/10/06 03:58:30;;;;;;;11.80;1.50;;;14.00;95.80;;;;;;5054016;28;20217;-73
2022/10/06 04:01:08;;;;;;;11.13;1.38;;;14.00;96.20;;;;;;5053700;28;20017;-74
2022/10/06 04:03:34;;;;;;;14.38;1.42;;;14.00;95.90;;;;;;5054230;28;20469;-74
2022/10/06 04:06:03;;;;;;;13.70;1.38;;;14.00;96.00;;;;;;5056386;28;20029;-74
2022/10/06 04:08:30;;;;;;;12.68;1.48;;;14.00;96.00;;;;;;5066724;28;20025;-73
2022/10/06 04:11:07;;;;;;;10.15;1.30;;;14.00;96.00;;;;;;5064797;28;20029;-73
2022/10/06 04:13:33;;;;;;;14.73;1.63;;;14.00;96.00;;;;;;5054480;28;20099;-73
2022/10/06 04:16:16;;;;;;;11.05;1.45;;;14.00;95.90;;;;;;5053822;28;20029;-73
2022/10/06 04:18:43;;;;;;;10.75;1.38;;;13.90;96.00;;;;;;5053689;28;20025;-73
2022/10/06 04:21:09;;;;;;;12.48;1.10;;;13.90;96.00;;;;;;5053212;28;20108;-73
2022/10/06 04:23:35;;;;;;;10.73;2.05;;;13.90;96.10;;;;;;5053335;28;20116;-74
2022/10/06 04:26:10;;;;;;;8.23;1.10;;;13.80;96.10;;;;;;5053483;28;20060;-74
2022/10/06 04:28:39;;;;;;;11.90;1.08;;;13.80;96.10;;;;;;5053512;28;20469;-74
2022/10/06 04:31:17;;;;;;;11.85;1.02;;;13.80;96.20;;;;;;5053624;28;20021;-73
2022/10/06 04:33:45;;;;;;;11.38;0.85;;;13.80;96.20;;;;;;5053187;28;20040;-73
2022/10/06 04:36:14;;;;;;;13.25;1.88;;;13.70;96.30;;;;;;5053210;28;20461;-73
2022/10/06 04:38:39;;;;;;;11.10;1.38;;;13.70;96.30;;;;;;5053240;28;20036;-74
2022/10/06 04:41:14;;;;;;;13.15;1.52;;;13.60;96.30;;;;;;5053603;28;20027;-73
2022/10/06 04:43:40;;;;;;;12.00;1.10;;;13.50;96.40;;;;;;5053213;28;20025;-74
2022/10/06 04:46:06;;;;;;;11.77;1.10;;;13.50;96.60;;;;;;5053164;28;20017;-73
2022/10/06 04:48:32;;;;;;;11.88;1.25;;;13.50;96.60;;;;;;5053691;28;20467;-74
2022/10/06 04:51:00;;;;;;;16.88;1.25;;;13.50;96.60;;;;;;5053306;28;20017;-74
2022/10/06 04:53:27;;;;;;;13.38;1.48;;;13.50;96.50;;;;;;5052957;28;20041;-74
2022/10/06 04:56:04;;;;;;;13.52;1.08;;;13.50;96.50;;;;;;5053302;28;20032;-73
2022/10/06 04:58:34;;;;;;;7.43;1.65;;;13.50;96.60;;;;;;5052748;28;20361;-74
2022/10/06 05:01:00;;;;;;;8.95;1.38;;;13.40;96.60;;;;;;5052986;28;20021;-74
2022/10/06 05:03:27;;;;;;;9.15;0.90;;;13.50;96.60;;;;;;5053270;28;20393;-73
2022/10/06 05:06:03;;;;;;;12.70;1.58;;;13.40;96.60;;;;;;5054685;28;20147;-73
2022/10/06 05:08:29;;;;;;;12.00;1.00;;;13.50;96.60;;;;;;5052808;28;20519;-73
2022/10/06 05:11:07;;;;;;;15.35;1.70;;;13.50;96.60;;;;;;5052870;28;20029;-74
2022/10/06 05:13:34;;;;;;;17.35;2.83;;;13.40;96.50;;;;;;5052795;28;20108;-73
2022/10/06 05:16:00;;;;;;;12.23;1.20;;;13.40;96.40;;;;;;5052738;28;20040;-73
2022/10/06 05:18:27;;;;;;;12.15;1.45;;;13.40;96.50;;;;;;5052964;28;20056;-74
2022/10/06 05:21:13;;;;;;;12.25;1.70;;;13.50;96.50;;;;;;5052931;28;20029;-74
2022/10/06 05:23:40;;;;;;;9.20;1.08;;;13.50;96.40;;;;;;5053154;28;20033;-74
2022/10/06 05:26:06;;;;;;;11.93;1.20;;;13.50;96.30;;;;;;5052797;28;20029;-74
2022/10/06 05:28:33;;;;;;;9.38;1.08;;;13.50;96.30;;;;;;5052670;28;20056;-73
2022/10/06 05:31:05;;;;;;;14.10;1.42;;;13.50;96.60;;;;;;5052810;28;20476;-73
2022/10/06 05:33:34;;;;;;;13.75;1.50;;;13.50;96.30;;;;;;5054748;28;20033;-74
2022/10/06 05:36:05;;;;;;;11.55;1.40;;;13.50;96.30;;;;;;5056359;28;20033;-74
2022/10/06 05:38:32;;;;;;;11.95;1.40;;;13.50;96.20;;;;;;5056411;28;20021;-74
2022/10/06 05:41:04;;;;;;;9.90;1.20;;;13.50;96.20;;;;;;5056291;28;20104;-73
2022/10/06 05:43:30;;;;;;;;;;;13.50;96.30;;;;;;5056665;28;20095;-74
2022/10/06 05:45:57;;;;;;;10.02;1.40;;;13.50;96.30;;;;;;5056044;28;20371;-74
2022/10/06 05:48:24;;;;;;;12.38;1.20;;;13.50;96.20;;;;;;5056012;28;20021;-74
2022/10/06 05:51:00;;;;;;;17.75;2.17;;;13.50;96.10;;;;;;5056090;28;20465;-74
2022/10/06 05:53:27;;;;;;;8.98;1.70;;;13.50;96.20;;;;;;5056175;28;20033;-74
2022/10/06 05:56:07;;;;;;;12.65;1.60;;;13.50;96.20;;;;;;5055669;28;20108;-74
2022/10/06 05:58:35;;;;;;;12.30;1.50;;;13.50;96.20;;;;;;5051874;28;20025;-73
2022/10/06 06:01:17;;;;;;;10.75;1.13;;;13.50;96.20;;;;;;5036431;28;20076;-71
2022/10/06 06:03:47;;;;;;;14.05;1.23;;;13.60;96.30;;;;;;5037480;28;20064;-70
2022/10/06 06:06:22;;;;;;;13.50;1.67;;;13.60;96.30;;;;;;5035072;28;20032;-72
2022/10/06 06:08:52;;;;;;;11.23;1.30;;;13.70;96.30;;;;;;5042927;28;20072;-71
2022/10/06 06:11:24;;;;;;;13.52;2.63;;;13.60;96.20;;;;;;5043663;28;20082;-72
2022/10/06 06:13:55;;;;;;;13.60;1.40;;;13.60;96.20;;;;;;5043223;28;20409;-73
2022/10/06 06:16:20;;;;;;;13.82;1.30;;;13.60;96.30;;;;;;5040730;28;20040;-76
2022/10/06 06:18:46;;;;;;;15.55;1.60;;;13.60;96.30;;;;;;5047477;28;20096;-75
2022/10/06 06:21:12;;;;;;;18.58;2.17;;;13.60;96.40;;;;;;5042713;28;20052;-75
2022/10/06 06:23:46;;;;;;;16.58;2.30;;;13.60;96.40;;;;;;5040297;28;20084;-74
2022/10/06 06:26:23;;;;;;;10.73;1.33;;;13.50;96.40;;;;;;5035227;28;20042;-75
2022/10/06 06:28:50;;;;;;;9.63;1.10;;;13.50;96.50;;;;;;5035763;28;20461;-78
2022/10/06 06:31:19;;;;;;;17.10;1.98;;;13.50;96.50;;;;;;5035423;28;20469;-76
2022/10/06 06:33:46;;;;;;;11.85;1.73;;;13.50;96.50;;;;;;5035494;28;20107;-76
2022/10/06 06:36:19;;;;;;;18.35;2.35;;;13.50;96.50;;;;;;5035518;28;20415;-76
2022/10/06 06:38:45;;;;;;;;;;;13.50;96.50;;;;;;5035987;28;20025;-75
2022/10/06 06:41:23;;;;;;;13.00;2.22;;;13.50;96.50;;;;;;5035307;28;20284;-76
2022/10/06 06:43:50;;;;;;;13.05;1.55;;;13.50;96.50;;;;;;5035402;28;20021;-76
2022/10/06 06:46:17;;;;;;;18.02;1.90;;;13.50;96.50;;;;;;5035006;28;20369;-76
2022/10/06 06:48:43;;;;;;;15.55;1.80;;;13.60;96.50;;;;;;5036111;28;20029;-76
2022/10/06 06:51:10;;;;;;;15.60;1.67;;;13.60;96.50;;;;;;5036500;28;20427;-71
2022/10/06 06:53:37;;;;;;;11.65;1.42;;;13.60;96.50;;;;;;5038378;28;20029;-71
2022/10/06 06:56:04;;;;;;;15.52;1.88;;;13.60;96.50;;;;;;5036403;28;20068;-70
2022/10/06 06:58:29;;;;;;;22.38;2.33;;;13.60;96.50;;;;;;5041075;28;20079;-71
2022/10/06 07:01:05;;;;;;;17.35;2.28;;;13.60;96.40;;;;;;5046587;28;20370;-75
2022/10/06 07:03:31;;;;;;;12.43;1.92;;;13.60;96.50;;;;;;5035958;28;20041;-76
2022/10/06 07:06:08;;;;;;;23.05;2.92;;;13.60;96.50;;;;;;5046885;28;20057;-75
2022/10/06 07:08:35;;;;;;;13.85;1.70;;;13.60;96.40;;;;;;5044624;28;20017;-74
2022/10/06 07:11:13;;;;;;;15.13;2.15;;;13.70;96.50;;;;;;5039610;28;20032;-76
2022/10/06 07:13:39;;;;;;;15.35;2.47;;;13.80;96.70;;;;;;5034626;28;20112;-76
2022/10/06 07:27:04;;;;;;;16.77;2.13;;;14.20;95.90;;;;;;5034242;28;20049;-74
2022/10/06 07:29:30;;;;;;;24.88;2.38;;;14.20;95.90;;;;;;5034423;28;20029;-74
2022/10/06 07:31:55;;;;;;;15.93;2.00;;;14.10;95.70;;;;;;5034153;28;20033;-76
2022/10/06 07:34:22;;;;;;;15.90;2.08;;;14.20;95.90;;;;;;5034215;28;20083;-75
2022/10/06 07:36:52;;;;;;;15.57;2.15;;;14.20;95.80;;;;;;5033946;28;20029;-75
2022/10/06 07:39:19;;;;;;;12.05;1.98;;;14.20;95.80;;;;;;5036963;28;20055;-75
2022/10/06 07:41:44;;;;;;;22.73;3.80;;;14.30;96.00;;;;;;5034865;28;20029;-75
2022/10/06 07:44:10;;;;;;;12.85;2.13;;;14.30;95.80;;;;;;5039407;28;20017;-73
2022/10/06 07:46:36;;;;;;;16.55;2.28;;;14.40;95.90;;;;;;5046032;28;20043;-74
2022/10/06 07:49:01;;;;;;;19.67;2.65;;;14.50;95.70;;;;;;5043010;28;20021;-75
2022/10/06 07:51:27;;;;;;;19.05;2.90;;;14.50;95.50;;;;;;5044146;28;20025;-74
2022/10/06 07:53:53;;;;;;;15.93;2.70;;;14.50;95.40;;;;;;5040229;28;20440;-72
2022/10/06 07:56:19;;;;;;;13.55;2.35;;;14.60;95.40;;;;;;5035012;28;20022;-72
2022/10/06 07:58:46;;;;;;;15.00;2.85;;;14.60;95.10;;;;;;5040739;28;20384;-72
2022/10/06 08:01:14;;;;;;;18.42;2.88;;;14.60;95.20;;;;;;5051353;28;20108;-76
2022/10/06 08:03:41;;;;;;;14.43;2.45;;;14.60;95.30;;;;;;5043664;28;20548;-78
2022/10/06 08:06:13;;;;;;;15.20;2.08;;;14.60;95.30;;;;;;5046927;28;20021;-76
2022/10/06 08:08:39;;;;;;;19.92;2.42;;;14.70;95.20;;;;;;5048909;28;20033;-74
2022/10/06 08:11:06;;;;;;;17.30;2.70;;;14.80;95.10;;;;;;5050771;28;20025;-74
2022/10/06 08:13:38;;;;;;;13.90;2.45;;;14.80;95.10;;;;;;5039389;28;21455;-74
2022/10/06 08:16:06;;;;;;;18.92;3.63;;;14.80;95.00;;;;;;5051420;28;20104;-74
2022/10/06 08:18:32;;;;;;;17.50;2.30;;;14.80;95.00;;;;;;5038707;28;20049;-76
2022/10/06 08:20:57;;;;;;;17.58;2.85;;;14.90;94.80;;;;;;5031395;28;20096;-74
2022/10/06 08:23:23;;;;;;;16.63;2.22;;;14.90;94.70;;;;;;5042784;28;20426;-73
2022/10/06 08:25:51;;;;;;;14.65;1.95;;;14.90;94.70;;;;;;5034799;28;20115;-73
2022/10/06 08:28:17;;;;;;;14.95;1.98;;;15.00;94.70;;;;;;5042158;28;20389;-74
2022/10/06 08:30:42;;;;;;;13.70;2.22;;;15.00;94.70;;;;;;5049605;28;21230;-74
2022/10/06 08:33:08;;;;;;;11.35;2.20;;;15.10;94.60;;;;;;5040672;28;20025;-74
2022/10/06 08:35:34;;;;;;;12.15;1.67;;;15.20;94.60;;;;;;5040115;28;20432;-74
2022/10/06 08:38:00;;;;;;;13.32;2.13;;;15.30;94.40;;;;;;5034272;28;20026;-73
2022/10/06 08:40:27;;;;;;;17.60;2.25;;;15.50;94.40;;;;;;5041250;28;20457;-73
2022/10/06 08:42:59;;;;;;;14.35;2.20;;;15.60;93.90;;;;;;5041475;28;20037;-73
2022/10/06 08:45:31;;;;;;;15.48;1.95;;;15.60;93.70;;;;;;5046164;28;20028;-74
2022/10/06 08:48:05;;;;;;;15.68;1.70;;;15.70;93.70;;;;;;5041549;28;20021;-74
2022/10/06 08:50:37;;;;;;;18.33;1.90;;;15.80;93.40;;;;;;5049145;28;20107;-72
2022/10/06 08:53:22;;;;;;;11.50;1.90;;;15.90;93.50;;;;;;5050449;28;20388;-73
2022/10/06 08:56:16;;;;;;;19.30;1.83;;;16.00;93.40;;;;;;5040586;28;20362;-73
2022/10/06 08:59:03;;;;;;;15.57;1.60;;;16.10;92.90;;;;;;5035684;28;20041;-72
2022/10/06 09:01:43;;;;;;;15.35;1.98;;;16.10;92.10;;;;;;5043267;28;20029;-73
2022/10/06 09:04:14;;;;;;;12.35;1.30;;;16.20;92.10;;;;;;5041909;28;20060;-72
2022/10/06 09:06:45;;;;;;;12.98;1.50;;;16.20;91.90;;;;;;5040462;28;20163;-74
2022/10/06 09:09:14;;;;;;;12.88;1.67;;;16.30;91.90;;;;;;5046532;28;20033;-74
2022/10/06 09:11:57;;;;;;;15.18;1.80;;;16.30;91.50;;;;;;5048837;28;20037;-72
2022/10/06 09:14:27;;;;;;;15.10;1.50;;;16.40;91.80;;;;;;5036433;28;20037;-73
2022/10/06 09:16:59;;;;;;;12.13;1.42;;;16.50;91.00;;;;;;5036932;28;20488;-74
2022/10/06 09:19:40;;;;;;;9.73;1.33;;;16.50;90.30;;;;;;5036791;28;20029;-76
2022/10/06 09:22:14;;;;;;;11.70;1.55;;;16.50;90.80;;;;;;5036764;28;20033;-74
2022/10/06 09:24:48;;;;;;;12.00;1.70;;;16.60;90.60;;;;;;5036959;28;20029;-74
2022/10/06 09:27:23;;;;;;;13.25;1.63;;;16.70;90.40;;;;;;5036553;28;20053;-75
2022/10/06 09:29:51;;;;;;;15.40;1.77;;;16.70;90.10;;;;;;5037072;28;20026;-75
2022/10/06 09:32:18;;;;;;;9.93;1.40;;;16.80;90.30;;;;;;5036859;28;20036;-76
2022/10/06 09:34:50;;;;;;;10.57;1.05;;;16.80;90.20;;;;;;5036256;28;20385;-75
2022/10/06 09:37:16;;;;;;;10.10;1.00;;;16.80;89.40;;;;;;5036458;28;20029;-76
2022/10/06 09:39:44;;;;;;;12.23;1.55;;;16.80;89.40;;;;;;5036703;28;20033;-77
2022/10/06 09:42:12;;;;;;;9.18;1.05;;;16.80;89.50;;;;;;5037051;28;20052;-74
2022/10/06 09:44:50;;;;;;;10.93;1.08;;;16.90;89.70;;;;;;5036105;28;20037;-75
2022/10/06 09:47:33;;;;;;;12.82;1.25;;;16.90;87.90;;;;;;5052050;28;20022;-73
2022/10/06 09:50:14;;;;;;;10.00;1.40;;;16.90;88.70;;;;;;5035915;28;20481;-77
2022/10/06 09:52:41;;;;;;;7.22;0.80;;;17.00;88.90;;;;;;5036175;28;20040;-77
2022/10/06 09:55:16;;;;;;;9.55;1.10;;;17.10;88.20;;;;;;5035791;28;20116;-76
2022/10/06 09:57:54;;;;;;;9.25;1.02;;;17.10;88.10;;;;;;5042857;28;20159;-76
2022/10/06 10:00:31;;;;;;;8.77;1.10;;;17.20;88.00;;;;;;5046900;28;20112;-76
2022/10/06 10:03:08;;;;;;;10.55;0.80;;;17.20;87.60;;;;;;5039404;28;20480;-76
2022/10/06 10:05:37;;;;;;;8.00;0.63;;;17.20;86.50;;;;;;5043689;28;20033;-76
2022/10/06 10:08:12;;;;;;;8.60;0.98;;;17.20;85.80;;;;;;5042069;28;20530;-75
2022/10/06 10:10:38;;;;;;;13.63;0.70;;;17.20;85.40;;;;;;5052213;28;20479;-75
2022/10/06 10:13:22;;;;;;;8.57;1.27;;;17.20;85.60;;;;;;5039434;28;20024;-75
2022/10/06 10:15:58;;;;;;;6.75;0.75;;;17.20;86.20;;;;;;5050206;28;20083;-75
2022/10/06 10:18:27;;;;;;;10.55;1.23;;;17.10;84.90;;;;;;5046008;28;20044;-74
2022/10/06 10:21:04;;;;;;;9.70;1.00;;;17.10;85.30;;;;;;5036624;28;20116;-75
2022/10/06 10:23:34;;;;;;;8.95;1.10;;;17.00;85.10;;;;;;5035818;28;20026;-74
2022/10/06 10:26:07;;;;;;;9.75;0.88;;;17.00;85.70;;;;;;5035106;28;20396;-76
2022/10/06 10:28:33;;;;;;;8.25;1.23;;;17.20;85.80;;;;;;5035479;28;20049;-75
2022/10/06 10:31:04;;;;;;;10.30;1.20;;;17.30;85.60;;;;;;5035545;28;20029;-74
2022/10/06 10:33:35;;;;;;;9.10;0.98;;;17.30;84.60;;;;;;5035662;28;20084;-75
2022/10/06 10:36:03;;;;;;;9.18;0.95;;;17.40;84.90;;;;;;5035582;28;20033;-76
2022/10/06 10:38:30;;;;;;;13.57;1.98;;;17.40;83.30;;;;;;5035669;28;20032;-75
2022/10/06 10:41:03;;;;;;;9.88;1.02;;;17.40;82.80;;;;;;5035407;28;20088;-74
2022/10/06 10:43:44;;;;;;;8.23;1.25;;;17.20;82.30;;;;;;5043112;28;20052;-72
2022/10/06 10:46:12;;;;;;;12.73;1.15;;;17.10;83.10;;;;;;5037157;28;20425;-74
2022/10/06 10:49:02;;;;;;;13.23;1.10;;;17.20;84.00;;;;;;5035176;28;20560;-76
2022/10/06 10:51:30;;;;;;;7.22;0.70;;;17.30;84.50;;;;;;5034831;28;20044;-75
2022/10/06 10:54:27;;;;;;;10.00;1.02;;;17.20;83.40;;;;;;5048316;28;20025;-76
2022/10/06 10:56:53;;;;;;;8.18;0.82;;;17.10;82.90;;;;;;5036645;28;20064;-78
2022/10/06 10:59:42;;;;;;;6.85;0.90;;;17.10;83.50;;;;;;5052768;28;20052;-74
2022/10/06 11:02:17;;;;;;;6.25;0.60;;;17.30;82.90;;;;;;5048712;28;20029;-74
2022/10/06 11:04:52;;;;;;;6.15;0.65;;;17.50;83.70;;;;;;5044932;28;20075;-75
2022/10/06 11:07:25;;;;;;;11.38;1.00;;;17.80;83.70;;;;;;5043624;28;20124;-74
2022/10/06 11:10:12;;;;;;;7.97;0.85;;;18.00;82.60;;;;;;5051938;28;20033;-77
2022/10/06 11:12:47;;;;;;;7.20;0.63;;;18.20;81.50;;;;;;5034667;28;20042;-77
2022/10/06 11:15:39;;;;;;;8.95;0.68;;;18.40;79.80;;;;;;5046285;28;20041;-77
2022/10/06 11:18:46;;;;;;;9.48;0.95;;;18.40;79.30;;;;;;5033392;28;20037;-77
2022/10/06 11:21:20;;;;;;;7.10;0.73;;;18.50;77.90;;;;;;5044783;28;20500;-77
2022/10/06 11:23:54;;;;;;;5.68;0.88;;;18.40;78.10;;;;;;5041625;28;20036;-77
2022/10/06 11:26:30;;;;;;;9.13;0.90;;;18.40;78.20;;;;;;5032510;28;20559;-77
2022/10/06 11:29:50;;;;;;;5.22;0.50;;;18.10;76.50;;;;;;5038463;28;20377;-77
2022/10/06 11:32:42;;;;;;;13.48;1.08;;;17.90;76.90;;;;;;5010937;28;20022;-76
2022/10/06 11:35:25;;;;;;;6.50;0.70;;;17.80;78.10;;;;;;5036668;28;20436;-74
2022/10/06 11:38:02;;;;;;;5.88;0.70;;;17.70;77.60;;;;;;5055522;28;20025;-74
2022/10/06 11:40:37;;;;;;;6.68;0.93;;;17.80;78.60;;;;;;5052342;28;20057;-76
2022/10/06 11:43:15;;;;;;;5.88;0.68;;;18.00;78.00;;;;;;5035984;28;20032;-75
2022/10/06 11:46:22;;;;;;;7.20;0.90;;;18.10;78.10;;;;;;5033857;28;20033;-76
2022/10/06 11:48:47;;;;;;;5.55;0.80;;;18.30;78.00;;;;;;5033981;28;20048;-76
2022/10/06 11:51:22;;;;;;;7.15;0.95;;;18.30;76.90;;;;;;5034073;28;20033;-76
2022/10/06 11:53:48;;;;;;;4.80;0.80;;;18.40;76.40;;;;;;5037577;28;20140;-77
2022/10/06 11:56:16;;;;;;;5.25;0.65;;;18.30;76.60;;;;;;5034715;28;20116;-76
2022/10/06 11:58:54;;;;;;;9.45;1.40;;;18.50;77.00;;;;;;5033760;28;20029;-77
2022/10/06 12:01:31;;;;;;;9.60;0.90;;;18.50;76.60;;;;;;5013947;28;20030;-77
2022/10/06 12:04:09;;;;;;;9.88;1.10;;;18.40;76.20;;;;;;5013918;28;20112;-78
2022/10/06 12:06:46;;;;;;;5.80;0.68;;;18.30;76.50;;;;;;5013935;28;20049;-77
2022/10/06 12:09:24;;;;;;;7.88;0.90;;;18.30;77.00;;;;;;5014258;28;20112;-76
2022/10/06 12:12:05;;;;;;;7.18;0.80;;;18.30;77.20;;;;;;5019895;28;20473;-77
2022/10/06 12:14:53;;;;;;;8.48;0.98;;;18.40;75.50;;;;;;5033711;28;20076;-76
2022/10/06 12:17:41;;;;;;;5.53;0.70;;;18.40;75.90;;;;;;5033818;28;20085;-76
2022/10/06 12:20:28;;;;;;;4.78;0.47;;;18.60;74.80;;;;;;5034705;28;20022;-77
2022/10/06 12:23:14;;;;;;;6.07;0.75;;;18.80;74.40;;;;;;5033713;28;20033;-78
2022/10/06 12:25:59;;;;;;;10.20;1.33;;;18.90;74.10;;;;;;5033960;28;20124;-77
2022/10/06 12:28:37;;;;;;;7.40;0.80;;;19.00;73.60;;;;;;5033354;28;20055;-77
2022/10/06 12:31:19;;;;;;;10.27;0.60;;;19.00;72.40;;;;;;5040308;28;20562;-77
2022/10/06 12:33:45;;;;;;;6.50;0.57;;;18.90;72.10;;;;;;5054712;28;20495;-78
2022/10/06 12:36:38;;;;;;;5.55;0.75;;;18.70;71.40;;;;;;5056719;28;20038;-78
2022/10/06 12:39:20;;;;;;;6.63;0.73;;;18.60;71.70;;;;;;5037967;28;20033;-79
2022/10/06 12:42:23;;;;;;;6.05;0.75;;;18.40;72.70;;;;;;5033222;28;20034;-76
2022/10/06 12:44:50;;;;;;;;;;;18.30;73.60;;;;;;5033980;28;20053;-77
2022/10/06 12:47:20;;;;;;;7.00;0.80;;;18.10;74.30;;;;;;5036908;28;20351;-75
2022/10/06 12:49:52;;;;;;;6.82;0.63;;;18.00;74.40;;;;;;5039558;28;20112;-78
2022/10/06 12:52:33;;;;;;;6.43;0.60;;;18.00;75.30;;;;;;5045146;28;20040;-78
2022/10/06 12:55:10;;;;;;;6.68;1.05;;;17.90;76.30;;;;;;5033166;28;20132;-77
2022/10/06 12:57:47;;;;;;;8.07;0.73;;;17.90;77.30;;;;;;5045697;28;20112;-77
2022/10/06 13:00:36;;;;;;;10.45;1.15;;;18.00;77.60;;;;;;5035409;28;20041;-77
2022/10/06 13:03:05;;;;;;;9.95;1.00;;;18.10;77.40;;;;;;5035807;28;20108;-77
2022/10/06 13:05:31;;;;;;;7.93;1.00;;;18.10;77.00;;;;;;5048474;28;20108;-76
2022/10/06 13:08:17;;;;;;;8.43;0.80;;;18.20;76.70;;;;;;5037624;28;20037;-77
2022/10/06 13:10:42;;;;;;;7.00;0.77;;;18.40;76.90;;;;;;5042628;28;20389;-77